sensor_id;sensor_type;location;lat;lon;timestamp;pressure;altitude;pressure_sealevel;temperature;humidity
16613;BME280;8419;52.358;9.752;2023-04-29T00:02:18;100327.00;;;22.44;42.90
16613;BME280;8419;52.358;9.752;2023-04-29T00:05:05;100332.00;;;22.42;42.96
16613;BME280;8419;52.358;9.752;2023-04-29T00:07:51;100333.00;;;22.41;42.93
16613;BME280;8419;52.358;9.752;2023-04-29T00:10:36;100326.00;;;22.37;42.95
16613;BME280;8419;52.358;9.752;2023-04-29T00:13:23;100333.00;;;22.38;42.88
16613;BME280;8419;52.358;9.752;2023-04-29T00:16:11;100327.00;;;22.44;42.68
16613;BME280;8419;52.358;9.752;2023-04-29T00:18:58;100331.00;;;22.37;42.78
16613;BME280;8419;52.358;9.752;2023-04-29T00:21:43;100332.00;;;22.29;42.87
16613;BME280;8419;52.358;9.752;2023-04-29T00:24:31;100326.00;;;22.31;42.75
16613;BME280;8419;52.358;9.752;2023-04-29T00:27:17;100331.00;;;22.24;42.83
16613;BME280;8419;52.358;9.752;2023-04-29T00:30:02;100338.00;;;22.18;42.86
16613;BME280;8419;52.358;9.752;2023-04-29T00:32:47;100339.00;;;22.11;42.96
16613;BME280;8419;52.358;9.752;2023-04-29T00:35:33;100347.00;;;22.12;42.87
16613;BME280;8419;52.358;9.752;2023-04-29T00:38:21;100333.00;;;22.09;42.90
16613;BME280;8419;52.358;9.752;2023-04-29T00:41:07;100344.00;;;22.08;42.94
16613;BME280;8419;52.358;9.752;2023-04-29T00:43:53;100342.00;;;22.02;43.00
16613;BME280;8419;52.358;9.752;2023-04-29T00:46:39;100338.00;;;22.02;42.98
16613;BME280;8419;52.358;9.752;2023-04-29T00:49:24;100340.00;;;22.00;42.96
16613;BME280;8419;52.358;9.752;2023-04-29T00:52:10;100360.00;;;21.96;43.01
16613;BME280;8419;52.358;9.752;2023-04-29T00:54:57;100356.00;;;21.97;42.96
16613;BME280;8419;52.358;9.752;2023-04-29T00:57:44;100353.00;;;21.98;42.87
16613;BME280;8419;52.358;9.752;2023-04-29T01:00:32;100366.00;;;21.92;42.98
16613;BME280;8419;52.358;9.752;2023-04-29T01:03:18;100362.00;;;21.91;43.03
16613;BME280;8419;52.358;9.752;2023-04-29T01:06:10;100368.00;;;21.88;43.05
16613;BME280;8419;52.358;9.752;2023-04-29T01:09:11;100360.00;;;21.93;42.98
16613;BME280;8419;52.358;9.752;2023-04-29T01:12:10;100371.00;;;21.94;42.97
16613;BME280;8419;52.358;9.752;2023-04-29T01:15:04;100377.00;;;21.92;43.01
16613;BME280;8419;52.358;9.752;2023-04-29T01:17:55;100374.00;;;21.78;43.21
16613;BME280;8419;52.358;9.752;2023-04-29T01:20:43;100378.00;;;21.73;43.39
16613;BME280;8419;52.358;9.752;2023-04-29T01:23:29;100373.00;;;21.67;43.42
16613;BME280;8419;52.358;9.752;2023-04-29T01:26:14;100368.00;;;21.65;43.47
16613;BME280;8419;52.358;9.752;2023-04-29T01:29:16;100383.00;;;21.62;43.55
16613;BME280;8419;52.358;9.752;2023-04-29T01:32:12;100381.00;;;21.62;43.55
16613;BME280;8419;52.358;9.752;2023-04-29T01:35:09;100387.00;;;21.51;43.82
16613;BME280;8419;52.358;9.752;2023-04-29T01:38:04;100387.00;;;21.42;44.02
16613;BME280;8419;52.358;9.752;2023-04-29T01:41:03;100388.00;;;21.38;44.10
16613;BME280;8419;52.358;9.752;2023-04-29T01:43:56;100392.00;;;21.30;44.23
16613;BME280;8419;52.358;9.752;2023-04-29T01:46:45;100397.00;;;21.31;44.23
16613;BME280;8419;52.358;9.752;2023-04-29T01:49:35;100397.00;;;21.28;44.30
16613;BME280;8419;52.358;9.752;2023-04-29T01:52:21;100405.00;;;21.28;44.33
16613;BME280;8419;52.358;9.752;2023-04-29T01:55:09;100405.00;;;21.28;44.38
16613;BME280;8419;52.358;9.752;2023-04-29T01:57:55;100406.00;;;21.21;44.64
16613;BME280;8419;52.358;9.752;2023-04-29T02:00:40;100402.00;;;21.25;44.46
16613;BME280;8419;52.358;9.752;2023-04-29T02:03:26;100414.00;;;21.22;44.68
16613;BME280;8419;52.358;9.752;2023-04-29T02:06:11;100407.00;;;21.21;44.61
16613;BME280;8419;52.358;9.752;2023-04-29T02:08:57;100413.00;;;21.18;44.66
16613;BME280;8419;52.358;9.752;2023-04-29T02:11:42;100411.00;;;21.14;44.84
16613;BME280;8419;52.358;9.752;2023-04-29T02:14:29;100416.00;;;21.12;44.84
16613;BME280;8419;52.358;9.752;2023-04-29T02:17:15;100414.00;;;21.12;44.92
16613;BME280;8419;52.358;9.752;2023-04-29T02:20:01;100428.00;;;21.02;45.17
16613;BME280;8419;52.358;9.752;2023-04-29T02:22:46;100441.00;;;20.96;45.20
16613;BME280;8419;52.358;9.752;2023-04-29T02:25:32;100436.00;;;20.92;45.27
16613;BME280;8419;52.358;9.752;2023-04-29T02:28:19;100452.00;;;20.88;45.41
16613;BME280;8419;52.358;9.752;2023-04-29T02:31:04;100442.00;;;20.87;45.34
16613;BME280;8419;52.358;9.752;2023-04-29T02:33:51;100449.00;;;20.85;45.42
16613;BME280;8419;52.358;9.752;2023-04-29T02:36:37;100447.00;;;20.84;45.53
16613;BME280;8419;52.358;9.752;2023-04-29T02:39:23;100448.00;;;20.81;45.59
16613;BME280;8419;52.358;9.752;2023-04-29T02:42:12;100470.00;;;20.86;45.50
16613;BME280;8419;52.358;9.752;2023-04-29T02:44:57;100467.00;;;20.78;45.58
16613;BME280;8419;52.358;9.752;2023-04-29T02:47:43;100473.00;;;20.74;45.62
16613;BME280;8419;52.358;9.752;2023-04-29T02:50:28;100470.00;;;20.69;45.62
16613;BME280;8419;52.358;9.752;2023-04-29T02:53:14;100471.00;;;20.65;45.65
16613;BME280;8419;52.358;9.752;2023-04-29T02:56:00;100489.00;;;20.59;45.73
16613;BME280;8419;52.358;9.752;2023-04-29T02:58:45;100484.00;;;20.56;45.77
16613;BME280;8419;52.358;9.752;2023-04-29T03:01:31;100473.00;;;20.54;45.74
16613;BME280;8419;52.358;9.752;2023-04-29T03:04:16;100478.00;;;20.57;45.63
16613;BME280;8419;52.358;9.752;2023-04-29T03:07:02;100483.00;;;20.61;45.57
16613;BME280;8419;52.358;9.752;2023-04-29T03:09:48;100490.00;;;20.55;45.62
16613;BME280;8419;52.358;9.752;2023-04-29T03:12:34;100494.00;;;20.52;45.67
16613;BME280;8419;52.358;9.752;2023-04-29T03:15:20;100498.00;;;20.53;45.61
16613;BME280;8419;52.358;9.752;2023-04-29T03:18:05;100496.00;;;20.52;45.63
16613;BME280;8419;52.358;9.752;2023-04-29T03:20:51;100500.00;;;20.50;45.65
16613;BME280;8419;52.358;9.752;2023-04-29T03:23:36;100496.00;;;20.50;45.60
16613;BME280;8419;52.358;9.752;2023-04-29T03:26:24;100500.00;;;20.54;45.52
16613;BME280;8419;52.358;9.752;2023-04-29T03:29:09;100503.00;;;20.53;45.35
16613;BME280;8419;52.358;9.752;2023-04-29T03:31:54;100502.00;;;20.49;45.39
16613;BME280;8419;52.358;9.752;2023-04-29T03:34:40;100520.00;;;20.44;45.38
16613;BME280;8419;52.358;9.752;2023-04-29T03:37:25;100523.00;;;20.44;45.31
16613;BME280;8419;52.358;9.752;2023-04-29T03:40:13;100517.00;;;20.49;45.25
16613;BME280;8419;52.358;9.752;2023-04-29T03:42:58;100517.00;;;20.50;45.10
16613;BME280;8419;52.358;9.752;2023-04-29T03:45:44;100527.00;;;20.48;45.09
16613;BME280;8419;52.358;9.752;2023-04-29T03:48:30;100522.00;;;20.39;45.17
16613;BME280;8419;52.358;9.752;2023-04-29T03:51:16;100523.00;;;20.33;45.13
16613;BME280;8419;52.358;9.752;2023-04-29T03:54:02;100531.00;;;20.30;45.20
16613;BME280;8419;52.358;9.752;2023-04-29T03:56:48;100536.00;;;20.25;45.20
16613;BME280;8419;52.358;9.752;2023-04-29T03:59:33;100538.00;;;20.26;45.12
16613;BME280;8419;52.358;9.752;2023-04-29T04:02:19;100547.00;;;20.22;45.12
16613;BME280;8419;52.358;9.752;2023-04-29T04:05:05;100544.00;;;20.15;45.26
16613;BME280;8419;52.358;9.752;2023-04-29T04:07:51;100554.00;;;20.16;45.26
16613;BME280;8419;52.358;9.752;2023-04-29T04:10:36;100553.00;;;20.12;45.24
16613;BME280;8419;52.358;9.752;2023-04-29T04:13:21;100550.00;;;20.11;45.22
16613;BME280;8419;52.358;9.752;2023-04-29T04:16:07;100559.00;;;20.07;45.25
16613;BME280;8419;52.358;9.752;2023-04-29T04:18:52;100565.00;;;20.10;45.20
16613;BME280;8419;52.358;9.752;2023-04-29T04:21:38;100571.00;;;20.10;45.11
16613;BME280;8419;52.358;9.752;2023-04-29T04:24:23;100574.00;;;20.09;45.16
16613;BME280;8419;52.358;9.752;2023-04-29T04:27:08;100579.00;;;20.18;44.94
16613;BME280;8419;52.358;9.752;2023-04-29T04:29:54;100586.00;;;20.19;44.86
16613;BME280;8419;52.358;9.752;2023-04-29T04:32:40;100589.00;;;20.19;44.78
16613;BME280;8419;52.358;9.752;2023-04-29T04:35:25;100589.00;;;20.37;44.34
16613;BME280;8419;52.358;9.752;2023-04-29T04:38:13;100593.00;;;20.27;44.57
16613;BME280;8419;52.358;9.752;2023-04-29T04:40:59;100595.00;;;20.47;44.18
16613;BME280;8419;52.358;9.752;2023-04-29T04:43:44;100598.00;;;20.55;43.96
16613;BME280;8419;52.358;9.752;2023-04-29T04:46:29;100604.00;;;20.36;44.25
16613;BME280;8419;52.358;9.752;2023-04-29T04:49:14;100610.00;;;20.30;44.34
16613;BME280;8419;52.358;9.752;2023-04-29T04:52:01;100614.00;;;20.34;44.20
16613;BME280;8419;52.358;9.752;2023-04-29T04:54:47;100624.00;;;20.36;44.08
16613;BME280;8419;52.358;9.752;2023-04-29T04:57:32;100617.00;;;20.31;44.10
16613;BME280;8419;52.358;9.752;2023-04-29T05:00:18;100627.00;;;20.31;44.13
16613;BME280;8419;52.358;9.752;2023-04-29T05:03:04;100631.00;;;20.33;44.10
16613;BME280;8419;52.358;9.752;2023-04-29T05:05:53;100643.00;;;20.31;44.02
16613;BME280;8419;52.358;9.752;2023-04-29T05:08:38;100642.00;;;20.11;44.37
16613;BME280;8419;52.358;9.752;2023-04-29T05:11:24;100647.00;;;20.17;44.22
16613;BME280;8419;52.358;9.752;2023-04-29T05:14:10;100648.00;;;20.13;44.31
16613;BME280;8419;52.358;9.752;2023-04-29T05:16:58;100660.00;;;20.20;44.17
16613;BME280;8419;52.358;9.752;2023-04-29T05:19:44;100667.00;;;20.26;44.01
16613;BME280;8419;52.358;9.752;2023-04-29T05:22:29;100666.00;;;20.21;43.91
16613;BME280;8419;52.358;9.752;2023-04-29T05:25:15;100675.00;;;20.04;44.23
16613;BME280;8419;52.358;9.752;2023-04-29T05:28:01;100677.00;;;20.00;44.23
16613;BME280;8419;52.358;9.752;2023-04-29T05:30:50;100678.00;;;20.04;44.19
16613;BME280;8419;52.358;9.752;2023-04-29T05:33:36;100676.00;;;20.04;44.06
16613;BME280;8419;52.358;9.752;2023-04-29T05:36:21;100680.00;;;19.97;44.15
16613;BME280;8419;52.358;9.752;2023-04-29T05:39:07;100683.00;;;20.04;44.08
16613;BME280;8419;52.358;9.752;2023-04-29T05:41:52;100690.00;;;20.14;43.94
16613;BME280;8419;52.358;9.752;2023-04-29T05:44:37;100690.00;;;20.21;43.79
16613;BME280;8419;52.358;9.752;2023-04-29T05:47:26;100695.00;;;20.17;43.84
16613;BME280;8419;52.358;9.752;2023-04-29T05:50:11;100702.00;;;20.10;43.78
16613;BME280;8419;52.358;9.752;2023-04-29T05:52:57;100712.00;;;20.08;43.66
16613;BME280;8419;52.358;9.752;2023-04-29T05:55:42;100708.00;;;20.11;43.40
16613;BME280;8419;52.358;9.752;2023-04-29T05:58:32;100717.00;;;20.05;43.48
16613;BME280;8419;52.358;9.752;2023-04-29T06:01:17;100717.00;;;20.13;43.27
16613;BME280;8419;52.358;9.752;2023-04-29T06:04:03;100725.00;;;20.05;43.51
16613;BME280;8419;52.358;9.752;2023-04-29T06:06:48;100729.00;;;20.01;43.59
16613;BME280;8419;52.358;9.752;2023-04-29T06:09:37;100732.00;;;20.10;43.36
16613;BME280;8419;52.358;9.752;2023-04-29T06:12:23;100739.00;;;20.19;43.13
16613;BME280;8419;52.358;9.752;2023-04-29T06:15:11;100735.00;;;20.24;43.04
16613;BME280;8419;52.358;9.752;2023-04-29T06:17:58;100737.00;;;20.30;43.00
16613;BME280;8419;52.358;9.752;2023-04-29T06:20:44;100749.00;;;20.26;42.97
16613;BME280;8419;52.358;9.752;2023-04-29T06:23:29;100749.00;;;20.32;42.88
16613;BME280;8419;52.358;9.752;2023-04-29T06:26:16;100754.00;;;20.30;42.88
16613;BME280;8419;52.358;9.752;2023-04-29T06:29:02;100754.00;;;20.36;42.83
16613;BME280;8419;52.358;9.752;2023-04-29T06:31:48;100758.00;;;20.37;42.76
16613;BME280;8419;52.358;9.752;2023-04-29T06:34:33;100752.00;;;20.42;42.76
16613;BME280;8419;52.358;9.752;2023-04-29T06:37:21;100766.00;;;20.50;42.69
16613;BME280;8419;52.358;9.752;2023-04-29T06:40:10;100775.00;;;20.65;42.53
16613;BME280;8419;52.358;9.752;2023-04-29T06:42:58;100776.00;;;20.69;42.50
16613;BME280;8419;52.358;9.752;2023-04-29T06:45:47;100794.00;;;20.64;42.62
16613;BME280;8419;52.358;9.752;2023-04-29T06:48:33;100792.00;;;20.75;42.45
16613;BME280;8419;52.358;9.752;2023-04-29T06:51:18;100796.00;;;20.65;42.57
16613;BME280;8419;52.358;9.752;2023-04-29T06:54:04;100808.00;;;20.75;42.38
16613;BME280;8419;52.358;9.752;2023-04-29T06:56:49;100806.00;;;20.74;42.24
16613;BME280;8419;52.358;9.752;2023-04-29T06:59:34;100812.00;;;20.65;42.28
16613;BME280;8419;52.358;9.752;2023-04-29T07:02:20;100826.00;;;20.47;42.56
16613;BME280;8419;52.358;9.752;2023-04-29T07:05:08;100828.00;;;20.42;42.62
16613;BME280;8419;52.358;9.752;2023-04-29T07:07:55;100838.00;;;20.54;42.59
16613;BME280;8419;52.358;9.752;2023-04-29T07:10:41;100829.00;;;20.84;42.18
16613;BME280;8419;52.358;9.752;2023-04-29T07:13:28;100836.00;;;21.03;41.82
16613;BME280;8419;52.358;9.752;2023-04-29T07:16:17;100849.00;;;21.03;41.69
16613;BME280;8419;52.358;9.752;2023-04-29T07:19:04;100857.00;;;21.14;41.45
16613;BME280;8419;52.358;9.752;2023-04-29T07:21:50;100849.00;;;21.15;41.27
16613;BME280;8419;52.358;9.752;2023-04-29T07:24:36;100864.00;;;21.09;41.41
16613;BME280;8419;52.358;9.752;2023-04-29T07:27:21;100878.00;;;21.20;41.24
16613;BME280;8419;52.358;9.752;2023-04-29T07:30:11;100881.00;;;21.31;41.13
16613;BME280;8419;52.358;9.752;2023-04-29T07:32:57;100881.00;;;21.59;40.95
16613;BME280;8419;52.358;9.752;2023-04-29T07:35:44;100885.00;;;21.90;40.54
16613;BME280;8419;52.358;9.752;2023-04-29T07:38:30;100889.00;;;22.13;40.33
16613;BME280;8419;52.358;9.752;2023-04-29T07:41:15;100899.00;;;22.39;39.98
16613;BME280;8419;52.358;9.752;2023-04-29T07:44:02;100906.00;;;22.49;39.60
16613;BME280;8419;52.358;9.752;2023-04-29T07:46:48;100905.00;;;22.41;39.63
16613;BME280;8419;52.358;9.752;2023-04-29T07:49:34;100917.00;;;22.49;39.49
16613;BME280;8419;52.358;9.752;2023-04-29T07:52:19;100919.00;;;22.41;39.58
16613;BME280;8419;52.358;9.752;2023-04-29T07:55:09;100925.00;;;22.22;39.59
16613;BME280;8419;52.358;9.752;2023-04-29T07:57:55;100916.00;;;22.16;39.35
16613;BME280;8419;52.358;9.752;2023-04-29T08:00:41;100922.00;;;22.10;39.31
16613;BME280;8419;52.358;9.752;2023-04-29T08:03:27;100921.00;;;22.08;39.21
16613;BME280;8419;52.358;9.752;2023-04-29T08:06:13;100931.00;;;22.03;39.13
16613;BME280;8419;52.358;9.752;2023-04-29T08:08:58;100937.00;;;21.94;39.11
16613;BME280;8419;52.358;9.752;2023-04-29T08:11:43;100939.00;;;22.05;38.88
16613;BME280;8419;52.358;9.752;2023-04-29T08:14:30;100944.00;;;22.24;38.62
16613;BME280;8419;52.358;9.752;2023-04-29T08:17:15;100946.00;;;22.44;38.38
16613;BME280;8419;52.358;9.752;2023-04-29T08:20:01;100946.00;;;22.62;38.05
16613;BME280;8419;52.358;9.752;2023-04-29T08:22:47;100947.00;;;22.70;37.80
16613;BME280;8419;52.358;9.752;2023-04-29T08:25:32;100948.00;;;22.86;37.75
16613;BME280;8419;52.358;9.752;2023-04-29T08:28:17;100945.00;;;23.11;37.38
16613;BME280;8419;52.358;9.752;2023-04-29T08:31:03;100950.00;;;23.42;37.09
16613;BME280;8419;52.358;9.752;2023-04-29T08:33:51;100952.00;;;23.68;36.84
16613;BME280;8419;52.358;9.752;2023-04-29T08:36:55;100956.00;;;23.87;36.51
16613;BME280;8419;52.358;9.752;2023-04-29T08:39:41;100958.00;;;24.11;36.28
16613;BME280;8419;52.358;9.752;2023-04-29T08:42:33;100962.00;;;24.05;36.00
16613;BME280;8419;52.358;9.752;2023-04-29T08:45:19;100964.00;;;23.92;35.76
16613;BME280;8419;52.358;9.752;2023-04-29T08:48:08;100969.00;;;23.93;35.86
16613;BME280;8419;52.358;9.752;2023-04-29T08:50:53;100970.00;;;24.21;35.39
16613;BME280;8419;52.358;9.752;2023-04-29T08:53:39;100974.00;;;23.96;35.93
16613;BME280;8419;52.358;9.752;2023-04-29T08:56:27;100975.00;;;24.00;35.91
16613;BME280;8419;52.358;9.752;2023-04-29T08:59:16;100983.00;;;24.05;35.63
16613;BME280;8419;52.358;9.752;2023-04-29T09:02:10;100992.00;;;24.04;35.51
16613;BME280;8419;52.358;9.752;2023-04-29T09:05:05;100984.00;;;24.16;35.37
16613;BME280;8419;52.358;9.752;2023-04-29T09:07:53;100989.00;;;24.32;35.13
16613;BME280;8419;52.358;9.752;2023-04-29T09:10:42;100997.00;;;24.38;34.80
16613;BME280;8419;52.358;9.752;2023-04-29T09:13:32;100992.00;;;24.36;34.36
16613;BME280;8419;52.358;9.752;2023-04-29T09:16:17;100997.00;;;24.13;34.03
16613;BME280;8419;52.358;9.752;2023-04-29T09:19:03;101002.00;;;24.06;34.15
16613;BME280;8419;52.358;9.752;2023-04-29T09:21:55;101000.00;;;23.99;34.03
16613;BME280;8419;52.358;9.752;2023-04-29T09:24:41;101005.00;;;23.89;34.08
16613;BME280;8419;52.358;9.752;2023-04-29T09:27:28;101012.00;;;23.95;34.11
16613;BME280;8419;52.358;9.752;2023-04-29T09:30:13;101013.00;;;23.94;34.04
16613;BME280;8419;52.358;9.752;2023-04-29T09:33:05;101008.00;;;23.70;34.19
16613;BME280;8419;52.358;9.752;2023-04-29T09:35:53;101018.00;;;23.71;34.15
16613;BME280;8419;52.358;9.752;2023-04-29T09:38:53;101019.00;;;23.83;33.99
16613;BME280;8419;52.358;9.752;2023-04-29T09:41:41;101021.00;;;23.69;34.07
16613;BME280;8419;52.358;9.752;2023-04-29T09:44:28;101033.00;;;23.51;34.19
16613;BME280;8419;52.358;9.752;2023-04-29T09:47:14;101032.00;;;23.38;34.51
16613;BME280;8419;52.358;9.752;2023-04-29T09:50:11;101036.00;;;23.11;34.58
16613;BME280;8419;52.358;9.752;2023-04-29T09:53:01;101042.00;;;23.00;34.78
16613;BME280;8419;52.358;9.752;2023-04-29T09:55:59;101048.00;;;23.02;34.79
16613;BME280;8419;52.358;9.752;2023-04-29T09:58:47;101045.00;;;22.84;35.07
16613;BME280;8419;52.358;9.752;2023-04-29T10:01:40;101051.00;;;22.97;34.90
16613;BME280;8419;52.358;9.752;2023-04-29T10:04:26;101055.00;;;23.05;34.82
16613;BME280;8419;52.358;9.752;2023-04-29T10:07:14;101050.00;;;23.30;34.48
16613;BME280;8419;52.358;9.752;2023-04-29T10:10:02;101056.00;;;23.50;34.05
16613;BME280;8419;52.358;9.752;2023-04-29T10:12:52;101051.00;;;23.66;33.80
16613;BME280;8419;52.358;9.752;2023-04-29T10:15:46;101053.00;;;23.66;33.57
16613;BME280;8419;52.358;9.752;2023-04-29T10:18:40;101057.00;;;23.62;33.56
16613;BME280;8419;52.358;9.752;2023-04-29T10:21:28;101058.00;;;23.67;33.73
16613;BME280;8419;52.358;9.752;2023-04-29T10:24:17;101057.00;;;23.65;33.39
16613;BME280;8419;52.358;9.752;2023-04-29T10:27:08;101054.00;;;23.55;33.36
16613;BME280;8419;52.358;9.752;2023-04-29T10:29:58;101057.00;;;23.55;33.43
16613;BME280;8419;52.358;9.752;2023-04-29T10:32:49;101057.00;;;23.59;33.45
16613;BME280;8419;52.358;9.752;2023-04-29T10:35:37;101061.00;;;23.48;33.25
16613;BME280;8419;52.358;9.752;2023-04-29T10:38:27;101057.00;;;23.65;33.17
16613;BME280;8419;52.358;9.752;2023-04-29T10:41:24;101057.00;;;24.04;32.76
16613;BME280;8419;52.358;9.752;2023-04-29T10:44:13;101050.00;;;24.40;32.14
16613;BME280;8419;52.358;9.752;2023-04-29T10:47:21;101054.00;;;24.63;32.06
16613;BME280;8419;52.358;9.752;2023-04-29T10:50:11;101046.00;;;24.80;31.76
16613;BME280;8419;52.358;9.752;2023-04-29T10:52:57;101054.00;;;24.67;31.70
16613;BME280;8419;52.358;9.752;2023-04-29T10:56:05;101056.00;;;24.53;31.58
16613;BME280;8419;52.358;9.752;2023-04-29T10:58:52;101065.00;;;24.57;31.31
16613;BME280;8419;52.358;9.752;2023-04-29T11:01:48;101061.00;;;24.48;31.50
16613;BME280;8419;52.358;9.752;2023-04-29T11:04:34;101056.00;;;24.73;31.42
16613;BME280;8419;52.358;9.752;2023-04-29T11:07:28;101056.00;;;24.94;30.90
16613;BME280;8419;52.358;9.752;2023-04-29T11:10:14;101057.00;;;25.12;30.90
16613;BME280;8419;52.358;9.752;2023-04-29T11:13:44;101053.00;;;25.35;30.66
16613;BME280;8419;52.358;9.752;2023-04-29T11:16:38;101053.00;;;25.47;30.58
16613;BME280;8419;52.358;9.752;2023-04-29T11:19:33;101072.00;;;25.21;30.28
16613;BME280;8419;52.358;9.752;2023-04-29T11:22:25;101058.00;;;25.13;29.91
16613;BME280;8419;52.358;9.752;2023-04-29T11:25:12;101055.00;;;25.06;29.50
16613;BME280;8419;52.358;9.752;2023-04-29T11:27:58;101057.00;;;25.10;29.68
16613;BME280;8419;52.358;9.752;2023-04-29T11:30:45;101065.00;;;25.15;29.58
16613;BME280;8419;52.358;9.752;2023-04-29T11:33:32;101069.00;;;25.18;29.36
16613;BME280;8419;52.358;9.752;2023-04-29T11:36:20;101067.00;;;25.18;28.91
16613;BME280;8419;52.358;9.752;2023-04-29T11:39:05;101067.00;;;25.29;28.55
16613;BME280;8419;52.358;9.752;2023-04-29T11:42:05;101068.00;;;25.41;28.53
16613;BME280;8419;52.358;9.752;2023-04-29T11:44:54;101070.00;;;25.77;28.45
16613;BME280;8419;52.358;9.752;2023-04-29T11:47:43;101074.00;;;25.87;28.01
16613;BME280;8419;52.358;9.752;2023-04-29T11:50:29;101072.00;;;25.60;28.10
16613;BME280;8419;52.358;9.752;2023-04-29T11:53:23;101074.00;;;25.61;28.34
16613;BME280;8419;52.358;9.752;2023-04-29T11:56:10;101079.00;;;25.53;28.17
16613;BME280;8419;52.358;9.752;2023-04-29T11:58:56;101080.00;;;25.41;28.16
16613;BME280;8419;52.358;9.752;2023-04-29T12:01:42;101089.00;;;25.29;28.12
16613;BME280;8419;52.358;9.752;2023-04-29T12:04:33;101081.00;;;25.40;28.33
16613;BME280;8419;52.358;9.752;2023-04-29T12:07:19;101093.00;;;26.11;27.78
16613;BME280;8419;52.358;9.752;2023-04-29T12:10:09;101089.00;;;26.12;27.47
16613;BME280;8419;52.358;9.752;2023-04-29T12:12:55;101092.00;;;25.70;27.83
16613;BME280;8419;52.358;9.752;2023-04-29T12:15:43;101095.00;;;25.34;28.05
16613;BME280;8419;52.358;9.752;2023-04-29T12:18:30;101084.00;;;25.12;28.23
16613;BME280;8419;52.358;9.752;2023-04-29T12:21:16;101088.00;;;25.13;28.20
16613;BME280;8419;52.358;9.752;2023-04-29T12:24:13;101085.00;;;25.30;28.01
16613;BME280;8419;52.358;9.752;2023-04-29T12:26:59;101081.00;;;25.31;27.89
16613;BME280;8419;52.358;9.752;2023-04-29T12:29:46;101089.00;;;25.18;27.98
16613;BME280;8419;52.358;9.752;2023-04-29T12:32:33;101083.00;;;25.05;28.15
16613;BME280;8419;52.358;9.752;2023-04-29T12:35:19;101086.00;;;25.02;28.36
16613;BME280;8419;52.358;9.752;2023-04-29T12:38:09;101090.00;;;25.21;28.14
16613;BME280;8419;52.358;9.752;2023-04-29T12:40:56;101097.00;;;25.31;27.94
16613;BME280;8419;52.358;9.752;2023-04-29T12:43:43;101099.00;;;25.35;27.57
16613;BME280;8419;52.358;9.752;2023-04-29T12:46:34;101096.00;;;25.33;27.68
16613;BME280;8419;52.358;9.752;2023-04-29T12:49:24;101100.00;;;25.43;27.60
16613;BME280;8419;52.358;9.752;2023-04-29T12:52:10;101106.00;;;25.31;27.63
16613;BME280;8419;52.358;9.752;2023-04-29T12:54:57;101101.00;;;25.27;27.89
16613;BME280;8419;52.358;9.752;2023-04-29T12:57:42;101082.00;;;25.19;27.91
16613;BME280;8419;52.358;9.752;2023-04-29T13:00:31;101095.00;;;25.14;27.95
16613;BME280;8419;52.358;9.752;2023-04-29T13:03:18;101096.00;;;25.05;28.02
16613;BME280;8419;52.358;9.752;2023-04-29T13:06:05;101106.00;;;24.98;27.92
16613;BME280;8419;52.358;9.752;2023-04-29T13:08:55;101106.00;;;24.75;27.89
16613;BME280;8419;52.358;9.752;2023-04-29T13:11:41;101111.00;;;24.62;28.08
16613;BME280;8419;52.358;9.752;2023-04-29T13:14:26;101110.00;;;24.51;28.29
16613;BME280;8419;52.358;9.752;2023-04-29T13:17:12;101113.00;;;24.31;28.46
16613;BME280;8419;52.358;9.752;2023-04-29T13:19:58;101110.00;;;24.14;28.67
16613;BME280;8419;52.358;9.752;2023-04-29T13:22:43;101111.00;;;24.10;28.80
16613;BME280;8419;52.358;9.752;2023-04-29T13:25:29;101108.00;;;24.09;28.82
16613;BME280;8419;52.358;9.752;2023-04-29T13:28:14;101114.00;;;24.03;28.75
16613;BME280;8419;52.358;9.752;2023-04-29T13:31:00;101115.00;;;24.00;28.79
16613;BME280;8419;52.358;9.752;2023-04-29T13:33:46;101115.00;;;24.09;28.60
16613;BME280;8419;52.358;9.752;2023-04-29T13:36:32;101120.00;;;24.22;28.42
16613;BME280;8419;52.358;9.752;2023-04-29T13:39:24;101113.00;;;24.42;28.18
16613;BME280;8419;52.358;9.752;2023-04-29T13:42:10;101123.00;;;24.54;28.07
16613;BME280;8419;52.358;9.752;2023-04-29T13:44:57;101110.00;;;24.76;27.81
16613;BME280;8419;52.358;9.752;2023-04-29T13:47:43;101121.00;;;24.84;27.67
16613;BME280;8419;52.358;9.752;2023-04-29T13:50:28;101118.00;;;25.18;27.31
16613;BME280;8419;52.358;9.752;2023-04-29T13:53:14;101120.00;;;25.06;27.42
16613;BME280;8419;52.358;9.752;2023-04-29T13:56:01;101131.00;;;25.00;27.58
16613;BME280;8419;52.358;9.752;2023-04-29T13:58:46;101135.00;;;24.95;27.60
16613;BME280;8419;52.358;9.752;2023-04-29T14:01:34;101135.00;;;24.86;27.73
16613;BME280;8419;52.358;9.752;2023-04-29T14:04:19;101150.00;;;24.69;27.96
16613;BME280;8419;52.358;9.752;2023-04-29T14:07:05;101152.00;;;24.62;27.95
16613;BME280;8419;52.358;9.752;2023-04-29T14:09:54;101147.00;;;24.46;28.20
16613;BME280;8419;52.358;9.752;2023-04-29T14:12:39;101152.00;;;24.31;28.41
16613;BME280;8419;52.358;9.752;2023-04-29T14:15:25;101153.00;;;24.31;28.53
16613;BME280;8419;52.358;9.752;2023-04-29T14:18:10;101145.00;;;24.32;28.70
16613;BME280;8419;52.358;9.752;2023-04-29T14:21:00;101149.00;;;24.41;28.61
16613;BME280;8419;52.358;9.752;2023-04-29T14:23:45;101154.00;;;24.43;28.63
16613;BME280;8419;52.358;9.752;2023-04-29T14:26:31;101161.00;;;24.53;28.65
16613;BME280;8419;52.358;9.752;2023-04-29T14:29:34;101160.00;;;24.69;28.51
16613;BME280;8419;52.358;9.752;2023-04-29T14:32:20;101161.00;;;24.84;28.35
16613;BME280;8419;52.358;9.752;2023-04-29T14:35:08;101162.00;;;24.86;28.37
16613;BME280;8419;52.358;9.752;2023-04-29T14:37:53;101161.00;;;24.85;28.42
16613;BME280;8419;52.358;9.752;2023-04-29T14:40:39;101168.00;;;24.98;28.37
16613;BME280;8419;52.358;9.752;2023-04-29T14:43:24;101172.00;;;24.90;28.26
16613;BME280;8419;52.358;9.752;2023-04-29T14:46:10;101167.00;;;24.86;28.24
16613;BME280;8419;52.358;9.752;2023-04-29T14:48:57;101174.00;;;24.88;28.16